Time;durP1;ratioP1;P1;durP2;ratioP2;P2;SDS_P1;SDS_P2;PMS_P1;PMS_P2;Temp;Humidity;BMP_temperature;BMP_pressure;BME280_temperature;BME280_humidity;BME280_pressure;Samples;Min_cycle;Max_cycle;Signal;HPM_P1;HPM_P2
2023/04/03 00:00:34;;;;;;;4.15;1.75;;;;;;;2.75;65.56;101751.47;4984241;28;20050;-57
2023/04/03 00:03:01;;;;;;;4.13;1.80;;;;;;;2.74;65.25;101754.84;4986525;28;20112;-54
2023/04/03 00:05:29;;;;;;;4.95;2.42;;;;;;;2.72;64.94;101751.28;4986778;28;20047;-56
2023/04/03 00:07:55;;;;;;;3.42;2.20;;;;;;;2.70;65.53;101747.75;4986355;28;20046;-55
2023/04/03 00:10:22;;;;;;;4.43;2.35;;;;;;;2.68;66.25;101747.69;4982843;28;20050;-59
2023/04/03 00:12:49;;;;;;;4.40;1.67;;;;;;;2.69;66.45;101746.88;4985904;28;20064;-54
2023/04/03 00:15:15;;;;;;;6.97;3.13;;;;;;;2.67;66.07;101745.03;4985186;28;20588;-54
2023/04/03 00:17:42;;;;;;;2.63;2.33;;;;;;;2.66;65.76;101753.50;4985734;28;20557;-54
2023/04/03 00:20:09;;;;;;;5.70;2.55;;;;;;;2.62;66.64;101739.66;4986373;28;20050;-56
2023/04/03 00:22:36;;;;;;;7.60;2.38;;;;;;;2.60;65.86;101745.47;4984540;28;20125;-60
2023/04/03 00:25:03;;;;;;;5.72;2.67;;;;;;;2.57;66.10;101741.94;4986080;28;20047;-54
2023/04/03 00:27:30;;;;;;;8.77;2.60;;;;;;;2.55;66.23;101748.66;4986182;28;20133;-54
2023/04/03 00:29:56;;;;;;;5.18;2.63;;;;;;;2.54;65.94;101748.56;4990097;28;20146;-59
2023/04/03 00:32:23;;;;;;;3.55;2.13;;;;;;;2.50;66.45;101749.19;4988336;28;20046;-53
2023/04/03 00:34:49;;;;;;;9.70;2.53;;;;;;;2.47;66.38;101742.22;4988793;28;20097;-58
2023/04/03 00:37:16;;;;;;;11.45;2.50;;;;;;;2.45;66.62;101746.34;4985676;28;20053;-55
2023/04/03 00:39:42;;;;;;;5.47;2.78;;;;;;;2.41;66.56;101746.97;4993160;28;20081;-55
2023/04/03 00:42:09;;;;;;;9.20;3.28;;;;;;;2.38;65.91;101749.34;4989221;28;20061;-58
2023/04/03 00:47:15;;;;;;;8.63;3.75;;;;;;;2.86;66.18;101743.50;5013002;27;20414;-60
2023/04/03 00:49:43;;;;;;;5.30;1.88;;;;;;;2.52;67.01;101743.34;4998167;28;20515;-58
2023/04/03 00:52:15;;;;;;;5.63;1.67;;;;;;;2.42;66.76;101741.94;5000125;28;20054;-55
2023/04/03 00:54:43;;;;;;;6.63;2.22;;;;;;;2.36;65.94;101740.72;5002114;28;20512;-60
2023/04/03 00:57:11;;;;;;;8.18;2.47;;;;;;;2.30;66.44;101744.66;5006167;28;20520;-60
2023/04/03 00:59:43;;;;;;;3.20;1.55;;;;;;;2.26;67.21;101749.53;5014807;28;20049;-59
2023/04/03 01:02:10;;;;;;;4.78;1.27;;;;;;;2.22;67.00;101745.88;5010404;28;20146;-52
2023/04/03 01:04:39;;;;;;;3.35;1.33;;;;;;;2.19;67.00;101745.69;5018717;28;20066;-55
2023/04/03 01:09:44;;;;;;;3.63;2.72;;;;;;;2.09;66.91;101740.84;5010984;28;20406;-56
2023/04/03 01:15:00;;;;;;;3.30;1.17;;;;;;;1.99;66.51;101740.28;5092208;27;20768;-51
2023/04/03 01:25:36;;;;;;;4.40;2.25;;;;;;;1.84;67.18;101734.25;5068548;27;20403;-56
2023/04/03 01:28:05;;;;;;;4.55;1.48;;;;;;;1.80;67.65;101739.16;5057260;28;20040;-56
2023/04/03 01:30:37;;;;;;;2.72;0.93;;;;;;;1.77;66.47;101733.91;5056758;28;20048;-57
2023/04/03 01:33:04;;;;;;;5.13;1.55;;;;;;;1.73;67.19;101731.94;5056350;28;20056;-57
2023/04/03 01:35:30;;;;;;;3.17;1.38;;;;;;;1.69;67.28;101729.97;5059614;28;20636;-55
2023/04/03 01:37:57;;;;;;;5.75;1.10;;;;;;;1.66;66.53;101735.78;5057619;28;20412;-58
2023/04/03 01:40:24;;;;;;;7.32;1.80;;;;;;;1.61;67.84;101734.63;5058868;28;20684;-57
2023/04/03 01:42:51;;;;;;;3.03;1.33;;;;;;;1.58;67.32;101736.13;5059043;28;20124;-54
2023/04/03 01:45:17;;;;;;;5.70;1.73;;;;;;;1.56;67.07;101736.03;5062137;28;20095;-59
2023/04/03 01:47:44;;;;;;;10.10;1.55;;;;;;;1.53;66.25;101728.16;5056705;28;20439;-57
2023/04/03 01:50:11;;;;;;;6.25;1.40;;;;;;;1.50;66.53;101723.75;5058123;28;20064;-57
2023/04/03 01:52:37;;;;;;;3.65;1.50;;;;;;;1.46;66.93;101721.81;5047888;28;20071;-54
2023/04/03 01:55:04;;;;;;;4.38;2.13;;;;;;;1.46;68.24;101724.38;5061201;28;20462;-57
2023/04/03 01:57:31;;;;;;;5.70;1.75;;;;;;;1.44;67.38;101723.38;5078670;28;20744;-59
2023/04/03 01:59:58;;;;;;;3.58;1.38;;;;;;;1.41;67.11;101718.97;5094076;28;20054;-56
2023/04/03 02:02:24;;;;;;;3.72;1.58;;;;;;;1.39;67.26;101725.63;5090600;28;20102;-57
2023/04/03 02:04:51;;;;;;;5.03;1.13;;;;;;;1.37;67.31;101718.66;5092913;27;20080;-57
2023/04/03 02:07:17;;;;;;;4.50;1.52;;;;;;;1.34;66.83;101727.03;5092332;27;20166;-55
2023/04/03 02:09:44;;;;;;;4.50;1.20;;;;;;;1.31;68.17;101720.88;5092963;28;20627;-54
2023/04/03 02:12:11;;;;;;;5.80;1.83;;;;;;;1.30;67.63;101719.06;5093230;28;20071;-56
2023/04/03 02:14:37;;;;;;;7.35;1.77;;;;;;;1.26;67.44;101713.81;5094361;28;20125;-53
2023/04/03 02:17:08;;;;;;;6.32;1.67;;;;;;;1.24;67.55;101715.38;5093100;27;20451;-59
2023/04/03 02:19:35;;;;;;;;;;;;;;;1.15;68.41;101710.56;5100765;28;20051;-56
2023/04/03 02:22:02;;;;;;;6.35;1.55;;;;;;;1.16;67.37;101711.44;5101154;28;19955;-55
2023/04/03 02:24:29;;;;;;;5.68;2.28;;;;;;;1.12;67.13;101704.41;5097588;28;20105;-58
2023/04/03 02:26:56;;;;;;;4.43;2.25;;;;;;;1.09;66.99;101705.09;5100191;27;20470;-58
2023/04/03 02:29:23;;;;;;;3.50;1.58;;;;;;;1.08;67.17;101707.53;5100295;28;20630;-55
2023/04/03 02:31:50;;;;;;;7.25;1.55;;;;;;;1.05;67.58;101704.78;5100542;28;20071;-53
2023/04/03 02:34:17;;;;;;;2.83;1.40;;;;;;;1.02;67.28;101705.47;5098817;27;20043;-59
2023/04/03 02:36:44;;;;;;;3.63;1.67;;;;;;;1.00;67.54;101707.03;5086242;28;20083;-55
2023/04/03 02:39:11;;;;;;;5.00;1.75;;;;;;;1.00;67.74;101709.59;5076816;28;20043;-57
2023/04/03 02:41:37;;;;;;;4.25;1.48;;;;;;;0.97;67.75;101714.50;5079842;28;20394;-59
2023/04/03 02:44:06;;;;;;;4.03;1.33;;;;;;;0.95;67.79;101705.88;5079887;28;20097;-55
2023/04/03 02:46:33;;;;;;;6.95;1.40;;;;;;;0.92;67.28;101711.69;5077160;28;20067;-60
2023/04/03 02:48:59;;;;;;;3.83;1.23;;;;;;;0.91;68.37;101709.88;5079281;28;20043;-59
2023/04/03 02:51:26;;;;;;;3.67;1.90;;;;;;;0.88;68.24;101705.47;5083814;28;20056;-56
2023/04/03 02:53:53;;;;;;;3.38;1.33;;;;;;;0.88;67.42;101709.72;5080657;28;20321;-57
2023/04/03 02:56:21;;;;;;;5.80;1.55;;;;;;;0.86;68.63;101701.06;5080142;28;20049;-58
2023/04/03 02:58:48;;;;;;;6.00;1.20;;;;;;;0.86;67.65;101706.16;5077821;28;20129;-58
2023/04/03 03:01:14;;;;;;;5.88;1.38;;;;;;;0.85;67.53;101704.41;5078599;28;20137;-58
2023/04/03 03:03:41;;;;;;;3.53;1.10;;;;;;;0.84;67.89;101707.75;5084873;28;20055;-55
2023/04/03 03:06:11;;;;;;;6.97;1.55;;;;;;;0.80;68.77;101706.66;5080265;28;20517;-56
2023/04/03 03:08:38;;;;;;;4.60;1.92;;;;;;;0.79;68.31;101716.75;5079204;28;20744;-58
2023/04/03 03:11:05;;;;;;;3.85;1.40;;;;;;;0.79;68.11;101709.09;5079914;28;20049;-56
2023/04/03 03:13:32;;;;;;;3.78;1.45;;;;;;;0.77;67.93;101709.91;5080571;28;20064;-57
2023/04/03 03:15:59;;;;;;;5.15;1.50;;;;;;;0.76;68.34;101705.59;5079151;28;20105;-56
2023/04/03 03:18:26;;;;;;;5.78;1.75;;;;;;;0.76;67.91;101700.50;5081220;28;20616;-57
2023/04/03 03:20:56;;;;;;;6.30;1.88;;;;;;;0.75;68.71;101698.69;5084145;28;20075;-57
2023/04/03 03:23:25;;;;;;;4.60;2.30;;;;;;;0.76;68.64;101703.03;5082719;28;20691;-58
2023/04/03 03:25:57;;;;;;;5.28;1.33;;;;;;;0.76;67.92;101700.50;5084227;28;20075;-56
2023/04/03 03:28:23;;;;;;;4.47;1.58;;;;;;;0.76;68.13;101695.38;5082109;28;20135;-55
2023/04/03 03:30:50;;;;;;;3.97;1.73;;;;;;;0.76;67.97;101705.59;5081491;28;20044;-59
2023/04/03 03:33:18;;;;;;;4.05;1.77;;;;;;;0.77;67.76;101706.47;5083204;28;20099;-59
2023/04/03 03:35:45;;;;;;;4.25;1.42;;;;;;;0.76;68.28;101700.50;5083704;28;20124;-58
2023/04/03 03:38:12;;;;;;;6.57;1.80;;;;;;;0.79;68.44;101701.47;5082981;28;20563;-57
2023/04/03 03:40:38;;;;;;;5.30;1.80;;;;;;;0.79;68.76;101693.81;5080643;28;20106;-60
2023/04/03 03:43:05;;;;;;;4.07;1.25;;;;;;;0.79;67.74;101696.34;5082949;28;20044;-58
2023/04/03 03:45:31;;;;;;;3.60;2.15;;;;;;;0.78;68.25;101692.94;5082153;28;20127;-55
2023/04/03 03:47:58;;;;;;;5.00;2.03;;;;;;;0.80;68.56;101695.56;5078662;28;20051;-57
2023/04/03 03:50:25;;;;;;;3.30;1.30;;;;;;;0.79;68.88;101692.16;5079385;28;20044;-57
2023/04/03 03:52:51;;;;;;;4.00;1.88;;;;;;;0.80;68.95;101687.91;5078043;28;20040;-57
2023/04/03 03:55:18;;;;;;;4.70;1.67;;;;;;;0.81;68.54;101689.69;5067405;28;20060;-52
2023/04/03 03:57:44;;;;;;;3.92;1.73;;;;;;;0.80;69.13;101691.34;5058184;28;20127;-55
2023/04/03 04:00:11;;;;;;;5.28;2.05;;;;;;;0.81;68.23;101692.25;5059488;28;20143;-58
2023/04/03 04:02:38;;;;;;;4.07;1.40;;;;;;;0.80;68.45;101687.91;5065941;28;20091;-59
2023/04/03 04:05:06;;;;;;;4.90;1.20;;;;;;;0.80;69.23;101693.91;5059311;28;20664;-54
2023/04/03 04:07:32;;;;;;;4.03;2.15;;;;;;;0.83;68.44;101698.31;5057571;28;20083;-57
2023/04/03 04:09:59;;;;;;;10.40;1.77;;;;;;;0.83;68.83;101696.66;5055053;28;20105;-60
2023/04/03 04:12:25;;;;;;;6.55;1.45;;;;;;;0.85;69.26;101699.31;5054725;28;20539;-59
2023/04/03 04:14:52;;;;;;;2.70;1.45;;;;;;;0.86;68.85;101701.06;5053311;28;20078;-59
2023/04/03 04:17:18;;;;;;;7.40;1.92;;;;;;;0.86;68.92;101695.97;5055394;28;20064;-55
2023/04/03 04:19:45;;;;;;;4.40;1.75;;;;;;;0.87;69.29;101702.81;5056287;28;20123;-57
2023/04/03 04:22:12;;;;;;;5.95;1.90;;;;;;;0.88;69.45;101694.41;5057203;28;21795;-52
2023/04/03 04:24:38;;;;;;;4.05;1.50;;;;;;;0.90;69.36;101692.81;5057842;28;20072;-57
2023/04/03 04:27:05;;;;;;;4.43;1.15;;;;;;;0.91;68.69;101699.69;5056351;28;20547;-57
2023/04/03 04:29:35;;;;;;;4.63;2.08;;;;;;;0.92;68.69;101692.91;5065805;28;20052;-55
2023/04/03 04:32:03;;;;;;;4.03;2.05;;;;;;;0.95;68.63;101695.66;5060094;28;20541;-55
2023/04/03 04:34:30;;;;;;;3.92;1.30;;;;;;;0.97;68.71;101697.53;5055383;28;20052;-54
2023/04/03 04:36:57;;;;;;;4.07;1.67;;;;;;;0.98;69.11;101701.84;5050618;28;20059;-58
2023/04/03 04:39:23;;;;;;;6.28;1.35;;;;;;;0.99;68.41;101695.97;5055847;28;20052;-57
2023/04/03 04:41:50;;;;;;;10.93;1.23;;;;;;;1.01;68.41;101696.94;5056727;28;20048;-54
2023/04/03 04:44:17;;;;;;;9.93;1.60;;;;;;;1.02;68.90;101698.69;5061928;28;20056;-56
2023/04/03 04:46:43;;;;;;;5.55;1.42;;;;;;;1.04;69.44;101692.81;5059027;28;20052;-53
2023/04/03 04:49:10;;;;;;;12.98;1.38;;;;;;;1.05;68.39;101697.13;5059755;28;20044;-56
2023/04/03 04:51:36;;;;;;;5.32;1.83;;;;;;;1.09;69.17;101699.09;5049658;28;20106;-58
2023/04/03 04:54:16;;;;;;;9.48;1.30;;;;;;;1.09;69.88;101691.44;5059614;28;20110;-51
2023/04/03 04:56:43;;;;;;;14.45;1.30;;;;;;;1.10;69.11;101698.28;5052983;28;20048;-56
2023/04/03 04:59:10;;;;;;;3.63;1.35;;;;;;;1.11;69.34;101693.28;5056785;28;20078;-57
2023/04/03 05:01:36;;;;;;;4.57;1.77;;;;;;;1.13;68.64;101690.84;5053973;28;20048;-52
2023/04/03 05:04:03;;;;;;;4.03;1.40;;;;;;;1.15;70.01;101699.50;5054954;28;20048;-57
2023/04/03 05:06:31;;;;;;;8.57;1.50;;;;;;;1.15;69.58;101694.38;5055941;28;20581;-54
2023/04/03 05:08:59;;;;;;;3.60;1.67;;;;;;;1.14;68.98;101688.38;5055643;28;20045;-60
2023/04/03 05:11:26;;;;;;;3.58;1.35;;;;;;;1.15;69.65;101694.38;5053429;28;20080;-55
2023/04/03 05:13:53;;;;;;;5.47;1.50;;;;;;;1.16;69.83;101691.03;5057826;28;20148;-58
2023/04/03 05:16:19;;;;;;;5.80;1.38;;;;;;;1.16;68.71;101693.59;5056300;28;20052;-58
2023/04/03 05:18:46;;;;;;;7.32;1.00;;;;;;;1.18;68.77;101692.00;5054954;28;20041;-56
2023/04/03 05:21:13;;;;;;;4.95;1.77;;;;;;;1.18;68.79;101697.09;5054332;28;20517;-60
2023/04/03 05:23:39;;;;;;;5.25;1.60;;;;;;;1.21;69.26;101699.00;5055934;28;20052;-56
2023/04/03 05:26:06;;;;;;;5.75;1.65;;;;;;;1.22;70.28;101704.16;5053589;28;20086;-53
2023/04/03 05:28:34;;;;;;;4.15;1.67;;;;;;;1.23;69.03;101688.09;5054654;28;20979;-56
2023/04/03 05:31:01;;;;;;;5.55;1.25;;;;;;;1.24;69.29;101700.06;5059220;28;20044;-60
2023/04/03 05:33:28;;;;;;;6.95;2.55;;;;;;;1.25;69.59;101706.03;5053469;28;20497;-57
2023/04/03 05:35:54;;;;;;;2.63;1.38;;;;;;;1.26;69.01;101693.38;5054585;28;20076;-53
2023/04/03 05:38:21;;;;;;;4.68;1.83;;;;;;;1.29;70.20;101702.91;5054250;28;20385;-59
2023/04/03 05:40:48;;;;;;;5.60;1.55;;;;;;;1.30;69.34;101703.75;5055583;28;20122;-56
2023/04/03 05:43:15;;;;;;;4.43;1.65;;;;;;;1.30;69.01;101699.53;5057525;28;20053;-54
2023/04/03 05:45:43;;;;;;;7.47;2.08;;;;;;;1.32;69.54;101699.66;5054872;28;20147;-56
2023/04/03 05:48:12;;;;;;;6.22;1.40;;;;;;;1.35;69.47;101707.50;5054026;28;20505;-59
2023/04/03 05:50:41;;;;;;;4.70;1.52;;;;;;;1.36;69.39;101706.69;5054161;28;20407;-55
2023/04/03 05:53:17;;;;;;;3.75;1.60;;;;;;;1.39;69.92;101709.44;5056922;28;20045;-57
2023/04/03 05:55:44;;;;;;;2.85;1.30;;;;;;;1.42;70.54;101714.75;5060485;28;20044;-51
2023/04/03 05:58:11;;;;;;;4.90;1.10;;;;;;;1.44;70.34;101705.50;5070086;28;20044;-57
2023/04/03 06:00:37;;;;;;;5.53;1.42;;;;;;;1.46;70.57;101711.59;5076663;28;20458;-57
2023/04/03 06:03:04;;;;;;;3.53;1.23;;;;;;;1.49;69.60;101706.66;5074792;28;20068;-57
2023/04/03 06:05:31;;;;;;;3.50;1.13;;;;;;;1.51;69.58;101705.09;5054919;28;20088;-59
2023/04/03 06:07:58;;;;;;;5.07;1.63;;;;;;;1.54;68.95;101705.28;5055172;28;20109;-57
2023/04/03 06:10:25;;;;;;;4.93;1.30;;;;;;;1.58;69.32;101702.94;5054506;28;20557;-55
2023/04/03 06:12:51;;;;;;;5.78;1.40;;;;;;;1.63;70.31;101710.06;5057111;28;20208;-60
2023/04/03 06:15:18;;;;;;;3.83;1.20;;;;;;;1.67;70.20;101708.56;5063707;28;20098;-55
2023/04/03 06:17:45;;;;;;;3.00;1.42;;;;;;;1.71;69.99;101701.97;5055653;28;20041;-54
2023/04/03 06:20:13;;;;;;;7.70;1.50;;;;;;;1.73;70.71;101708.97;5062931;28;20048;-57
2023/04/03 06:22:40;;;;;;;5.05;1.10;;;;;;;1.77;69.41;101713.47;5059325;28;20044;-60
2023/04/03 06:25:07;;;;;;;4.88;1.25;;;;;;;1.84;70.29;101713.81;5059448;28;20504;-57
2023/04/03 06:27:34;;;;;;;2.05;1.10;;;;;;;1.91;69.67;101710.84;5061986;28;20056;-60
2023/04/03 06:30:00;;;;;;;2.95;1.20;;;;;;;1.98;69.56;101723.19;5061683;28;20254;-54
2023/04/03 06:32:27;;;;;;;8.30;1.13;;;;;;;2.02;69.91;101717.47;5067970;28;20056;-58
2023/04/03 06:34:55;;;;;;;5.68;1.42;;;;;;;2.09;69.38;101720.41;5065025;28;20052;-54
2023/04/03 06:37:22;;;;;;;7.47;1.42;;;;;;;2.16;70.76;101723.41;5062470;28;20139;-59
2023/04/03 06:39:49;;;;;;;3.47;1.65;;;;;;;2.22;70.66;101728.00;5060949;28;20140;-59
2023/04/03 06:42:15;;;;;;;3.70;1.60;;;;;;;2.29;70.46;101725.00;5065862;28;20106;-52
2023/04/03 06:44:42;;;;;;;3.72;1.48;;;;;;;2.37;70.27;101719.44;5064079;28;20048;-56
2023/04/03 06:47:13;;;;;;;4.80;1.63;;;;;;;2.44;69.80;101719.03;5063173;28;20756;-53
2023/04/03 06:49:41;;;;;;;4.30;1.13;;;;;;;2.52;70.38;101722.91;5063949;28;20048;-59
2023/04/03 06:52:08;;;;;;;6.50;1.63;;;;;;;2.57;70.19;101721.47;5070867;28;20056;-55
2023/04/03 06:54:35;;;;;;;5.55;1.20;;;;;;;2.65;70.34;101728.72;5086824;28;20044;-57
2023/04/03 06:57:02;;;;;;;5.63;1.45;;;;;;;2.72;69.36;101729.94;5084692;28;20056;-57
2023/04/03 06:59:29;;;;;;;3.78;1.60;;;;;;;2.77;70.07;101729.41;5087666;28;20056;-57
2023/04/03 07:01:55;;;;;;;8.27;1.55;;;;;;;2.82;69.61;101728.00;5084548;28;20453;-54
2023/04/03 07:04:22;;;;;;;9.20;1.55;;;;;;;2.90;69.91;101719.88;5083214;28;20131;-53
2023/04/03 07:06:48;;;;;;;5.75;1.55;;;;;;;2.99;70.25;101728.03;5074235;28;20063;-53
2023/04/03 07:09:15;;;;;;;3.05;1.17;;;;;;;3.03;69.67;101727.41;5080966;28;20125;-53
2023/04/03 07:11:42;;;;;;;4.93;1.15;;;;;;;3.06;70.54;101727.59;5082482;28;20063;-51
2023/04/03 07:14:08;;;;;;;7.45;1.67;;;;;;;3.13;70.43;101716.00;5078305;28;20612;-56
2023/04/03 07:16:35;;;;;;;3.28;1.02;;;;;;;3.19;70.08;101720.56;5082573;28;20079;-56
2023/04/03 07:19:03;;;;;;;4.85;1.55;;;;;;;3.26;69.62;101715.00;5079230;28;20048;-56
2023/04/03 07:21:30;;;;;;;3.60;1.55;;;;;;;3.38;69.79;101713.91;5081071;28;20080;-54
2023/04/03 07:23:58;;;;;;;10.88;3.00;;;;;;;3.62;70.13;101716.00;5079395;28;20096;-55
2023/04/03 07:26:25;;;;;;;3.53;1.17;;;;;;;3.67;70.10;101710.31;5082964;28;20044;-54
2023/04/03 07:28:52;;;;;;;5.53;1.95;;;;;;;3.69;69.72;101715.53;5081304;28;20048;-58
2023/04/03 07:31:19;;;;;;;5.15;2.22;;;;;;;3.71;69.80;101717.38;5085358;28;20043;-52
2023/04/03 07:33:45;;;;;;;5.88;2.00;;;;;;;3.73;69.48;101722.56;5082504;28;20036;-62
2023/04/03 07:36:16;;;;;;;5.22;1.63;;;;;;;3.72;69.70;101716.56;5079733;28;20078;-62
2023/04/03 07:38:43;;;;;;;8.90;1.27;;;;;;;3.80;69.86;101723.75;5080522;28;21295;-56
2023/04/03 07:41:14;;;;;;;7.88;1.27;;;;;;;3.85;69.70;101733.47;5084492;28;20473;-58
2023/04/03 07:43:42;;;;;;;9.13;1.50;;;;;;;3.90;70.13;101738.84;5079688;28;20506;-56
2023/04/03 07:46:09;;;;;;;4.13;0.90;;;;;;;3.95;69.88;101728.84;5080613;28;20047;-58
2023/04/03 07:48:36;;;;;;;2.22;1.05;;;;;;;4.03;70.31;101732.66;5081330;28;20127;-53
2023/04/03 07:51:04;;;;;;;5.30;1.70;;;;;;;4.11;70.27;101723.69;5080115;28;20078;-56
2023/04/03 07:53:31;;;;;;;8.52;1.67;;;;;;;4.21;70.13;101732.72;5081762;28;20079;-52
2023/04/03 07:55:59;;;;;;;3.53;1.50;;;;;;;4.29;69.90;101725.38;5078579;28;20090;-61
2023/04/03 07:58:26;;;;;;;9.20;1.27;;;;;;;4.40;69.65;101722.50;5078787;28;20105;-56
2023/04/03 08:00:53;;;;;;;5.93;1.75;;;;;;;4.52;69.51;101728.22;5079014;28;20052;-53
2023/04/03 08:03:19;;;;;;;5.00;1.33;;;;;;;4.92;69.79;101730.97;5076990;28;20473;-54
2023/04/03 08:05:49;;;;;;;6.95;1.63;;;;;;;5.43;69.08;101729.91;5065156;28;20128;-61
2023/04/03 08:08:18;;;;;;;3.38;1.35;;;;;;;5.61;69.32;101730.72;5073797;28;20121;-59
2023/04/03 08:10:50;;;;;;;8.35;1.73;;;;;;;5.79;68.77;101738.38;5066680;28;20072;-58
2023/04/03 08:13:17;;;;;;;4.25;1.48;;;;;;;5.95;68.74;101738.16;5058528;28;20064;-53
2023/04/03 08:15:43;;;;;;;4.88;1.45;;;;;;;6.08;68.26;101735.31;5055289;28;20075;-52
2023/04/03 08:18:10;;;;;;;6.13;1.73;;;;;;;6.65;69.12;101734.25;5058219;28;20121;-52
2023/04/03 08:20:38;;;;;;;7.10;1.75;;;;;;;7.16;68.39;101727.66;5056245;28;20539;-58
2023/04/03 08:23:05;;;;;;;7.40;2.08;;;;;;;7.75;67.82;101733.22;5053470;28;20136;-56
2023/04/03 08:25:31;;;;;;;4.30;1.35;;;;;;;8.45;66.85;101733.03;5053442;28;20051;-58
2023/04/03 08:27:58;;;;;;;4.88;1.45;;;;;;;8.54;65.95;101728.22;5054412;28;20056;-57
2023/04/03 08:30:25;;;;;;;7.50;1.83;;;;;;;8.53;65.73;101735.88;5059787;28;20128;-52
2023/04/03 08:32:51;;;;;;;6.03;1.52;;;;;;;8.54;64.81;101735.94;5060176;28;20049;-53
2023/04/03 08:35:19;;;;;;;7.13;1.70;;;;;;;9.04;65.04;101731.47;5058400;28;20060;-53
2023/04/03 08:37:46;;;;;;;4.97;1.33;;;;;;;9.66;64.76;101730.69;5061145;28;20094;-62
2023/04/03 08:40:16;;;;;;;5.05;1.90;;;;;;;9.98;63.32;101733.31;5059320;28;20067;-54
2023/04/03 08:45:50;;;;;;;3.28;1.65;;;;;;;10.28;63.45;101729.78;5044698;28;20417;-61
2023/04/03 08:48:26;;;;;;;6.22;1.90;;;;;;;10.91;63.22;101729.56;5019595;28;20052;-52
2023/04/03 08:50:58;;;;;;;5.30;1.48;;;;;;;11.18;61.46;101727.56;5012785;28;20140;-61
2023/04/03 08:53:32;;;;;;;11.05;1.88;;;;;;;11.12;60.91;101719.66;5029610;28;20058;-55
2023/04/03 08:56:04;;;;;;;6.30;1.73;;;;;;;11.19;60.59;101718.94;5016924;28;20390;-58
2023/04/03 08:58:41;;;;;;;6.95;1.30;;;;;;;11.21;60.70;101722.41;5018514;28;20042;-59
2023/04/03 09:01:22;;;;;;;6.68;1.83;;;;;;;11.62;60.77;101723.25;5018284;28;20073;-60
2023/04/03 09:03:49;;;;;;;7.97;1.20;;;;;;;11.63;60.35;101730.19;5013965;28;20065;-62
2023/04/03 09:06:24;;;;;;;6.10;1.20;;;;;;;11.67;59.21;101726.81;5017364;28;20046;-57
2023/04/03 09:09:15;;;;;;;5.47;1.25;;;;;;;11.91;59.26;101725.53;5032190;28;20058;-58
2023/04/03 09:14:53;;;;;;;5.03;1.38;;;;;;;11.94;58.70;101720.41;5055167;28;21686;-60
2023/04/03 09:22:43;;;;;;;5.43;2.63;;;;;;;12.04;56.24;101722.34;5028018;27;20414;-59
2023/04/03 09:25:21;;;;;;;3.67;2.40;;;;;;;11.86;55.38;101722.00;5043011;28;20045;-57
2023/04/03 09:27:48;;;;;;;4.63;2.60;;;;;;;11.70;56.83;101726.88;5052691;28;20044;-56
2023/04/03 09:30:18;;;;;;;2.78;1.73;;;;;;;11.54;56.82;101725.69;5052889;28;20102;-61
2023/04/03 09:32:47;;;;;;;2.60;1.30;;;;;;;11.23;57.22;101715.56;5055139;28;20052;-59
2023/04/03 09:37:54;;;;;;;5.10;1.40;;;;;;;10.82;57.74;101726.75;5037608;27;20466;-58
2023/04/03 09:40:34;;;;;;;5.35;1.92;;;;;;;10.77;58.86;101716.28;5018826;28;20102;-58
2023/04/03 09:43:20;;;;;;;4.45;1.58;;;;;;;10.82;57.73;101718.09;5031840;28;20057;-59
2023/04/03 09:45:49;;;;;;;9.27;1.65;;;;;;;10.79;58.63;101717.22;5040611;28;20735;-56
2023/04/03 09:48:20;;;;;;;4.53;2.00;;;;;;;10.74;57.94;101713.63;5014984;28;20575;-60
2023/04/03 09:58:51;;;;;;;9.10;1.75;;;;;;;9.68;57.95;101708.34;5066840;27;20419;-57
2023/04/03 10:01:36;;;;;;;2.60;1.23;;;;;;;9.54;57.27;101702.78;5050760;28;20500;-56
2023/04/03 10:06:47;;;;;;;9.02;1.35;;;;;;;9.59;59.15;101705.50;5037770;28;20762;-59
2023/04/03 10:09:27;;;;;;;3.00;1.15;;;;;;;9.45;59.20;101713.72;5011480;28;20161;-63
2023/04/03 10:14:56;;;;;;;7.60;1.08;;;;;;;9.25;59.09;101706.28;5072760;27;20402;-53
2023/04/03 10:23:40;;;;;;;4.03;1.10;;;;;;;9.40;59.60;101702.38;5071046;27;20398;-57
2023/04/03 10:28:59;;;;;;;4.50;1.98;;;;;;;9.76;57.91;101688.72;5026573;27;20418;-61
2023/04/03 10:31:40;;;;;;;3.67;1.90;;;;;;;9.75;58.08;101684.38;5016540;28;20581;-57
2023/04/03 10:34:24;;;;;;;3.75;1.75;;;;;;;10.35;59.11;101685.88;5017135;28;20096;-58
2023/04/03 10:40:01;;;;;;;4.88;2.88;;;;;;;10.29;56.35;101678.84;5036256;27;20404;-59
2023/04/03 10:50:57;;;;;;;2.95;1.48;;;;;;;10.76;58.33;101667.00;5035704;28;20396;-60
2023/04/03 10:53:36;;;;;;;2.42;1.58;;;;;;;11.11;57.25;101669.47;5020796;28;20489;-59
2023/04/03 10:58:54;;;;;;;2.45;1.50;;;;;;;11.70;56.62;101673.25;5029897;27;20418;-60
2023/04/03 11:01:26;;;;;;;3.13;1.55;;;;;;;11.64;55.76;101664.47;5022053;28;20061;-54
2023/04/03 11:03:57;;;;;;;2.63;0.95;;;;;;;11.41;54.44;101668.38;5021934;28;20060;-57
2023/04/03 11:06:31;;;;;;;5.63;2.70;;;;;;;11.51;55.14;101672.03;5017272;28;20405;-56
2023/04/03 11:09:03;;;;;;;4.88;1.98;;;;;;;11.52;54.51;101665.97;5011190;28;20069;-59
2023/04/03 11:11:35;;;;;;;4.47;1.35;;;;;;;11.71;55.32;101663.75;5016422;28;20452;-59
2023/04/03 11:14:16;;;;;;;3.20;1.25;;;;;;;11.75;56.41;101665.53;5013421;28;20064;-61
2023/04/03 11:16:47;;;;;;;6.95;1.45;;;;;;;11.57;53.86;101664.38;5029459;28;20049;-58
2023/04/03 11:19:29;;;;;;;3.70;1.33;;;;;;;11.42;54.15;101672.72;5020895;28;20056;-59
2023/04/03 11:22:04;;;;;;;3.28;1.45;;;;;;;11.03;54.09;101653.78;5015150;28;20045;-58
2023/04/03 11:24:33;;;;;;;3.28;1.45;;;;;;;10.96;54.23;101658.78;5014573;28;20065;-58
2023/04/03 11:27:03;;;;;;;3.35;1.42;;;;;;;11.08;55.07;101647.81;5015520;28;20050;-56
2023/04/03 11:29:37;;;;;;;7.00;1.50;;;;;;;11.27;54.06;101639.56;5008416;28;20073;-60
2023/04/03 11:35:09;;;;;;;1.83;1.58;;;;;;;11.66;56.01;101647.22;5074513;27;20399;-61
2023/04/03 11:43:05;;;;;;;4.20;2.15;;;;;;;11.73;54.60;101641.28;5062228;27;20394;-60
2023/04/03 11:45:36;;;;;;;3.15;1.27;;;;;;;11.79;55.04;101641.38;5018166;28;20038;-54
2023/04/03 11:50:43;;;;;;;5.55;1.50;;;;;;;11.86;54.44;101641.50;5053681;28;20386;-54
2023/04/03 12:01:10;;;;;;;4.97;1.65;;;;;;;12.16;54.26;101635.13;5039413;28;20387;-61
2023/04/03 12:08:55;;;;;;;3.33;1.70;;;;;;;12.13;52.76;101632.47;5060578;28;20391;-56
2023/04/03 12:11:29;;;;;;;5.10;1.98;;;;;;;12.23;53.03;101629.19;5023710;28;20107;-62
2023/04/03 12:19:40;;;;;;;4.85;2.08;;;;;;;12.24;52.00;101622.25;5034024;27;20756;-59
2023/04/03 12:22:20;;;;;;;3.08;1.25;;;;;;;12.23;51.03;101618.78;5010209;28;20046;-57
2023/04/03 12:24:51;;;;;;;3.60;3.17;;;;;;;12.39;51.26;101616.44;5025290;28;20112;-61
2023/04/03 12:27:40;;;;;;;4.30;1.63;;;;;;;12.42;51.62;101603.44;5013898;28;20111;-60
2023/04/03 12:30:18;;;;;;;3.67;1.00;;;;;;;12.26;52.44;101608.41;5025508;28;20057;-59
2023/04/03 12:32:58;;;;;;;2.78;1.63;;;;;;;12.45;52.73;101604.38;5038597;28;20089;-60
2023/04/03 12:35:52;;;;;;;5.78;1.60;;;;;;;12.67;52.62;101614.22;5038391;28;20064;-59
2023/04/03 12:51:37;;;;;;;5.93;1.45;;;;;;;12.70;51.87;101585.66;5040927;27;20432;-57
2023/04/03 12:54:25;;;;;;;4.78;1.75;;;;;;;12.53;50.59;101583.69;5006576;28;20165;-58
2023/04/03 12:57:09;;;;;;;2.30;1.17;;;;;;;12.59;50.12;101585.50;5011276;28;20056;-57
2023/04/03 12:59:36;;;;;;;3.65;1.25;;;;;;;12.45;49.36;101583.59;5005588;28;20053;-60
2023/04/03 13:02:03;;;;;;;3.65;1.23;;;;;;;12.55;52.36;101589.81;5005716;28;20069;-54
2023/04/03 13:04:32;;;;;;;2.88;1.40;;;;;;;12.62;52.38;101579.47;5010155;28;20540;-54
2023/04/03 13:06:59;;;;;;;5.68;1.63;;;;;;;12.59;51.11;101563.00;5010853;28;20101;-57
2023/04/03 13:09:28;;;;;;;1.75;0.88;;;;;;;12.53;52.01;101569.84;5006427;28;20042;-56
2023/04/03 13:12:00;;;;;;;4.63;1.65;;;;;;;12.37;50.36;101564.44;5008227;28;20264;-59
2023/04/03 13:14:28;;;;;;;5.97;1.17;;;;;;;12.33;52.21;101563.50;5007153;28;20141;-57
2023/04/03 13:16:58;;;;;;;3.17;1.10;;;;;;;12.44;52.81;101561.06;5006688;28;20095;-56
2023/04/03 13:19:27;;;;;;;3.45;1.35;;;;;;;12.53;51.43;101562.03;5011409;28;20069;-58
2023/04/03 13:22:04;;;;;;;3.75;1.42;;;;;;;12.49;52.23;101563.72;5006682;28;20061;-56
2023/04/03 13:24:34;;;;;;;4.95;1.77;;;;;;;12.51;51.22;101556.81;5011146;28;20049;-58
2023/04/03 13:27:02;;;;;;;4.78;1.38;;;;;;;12.57;51.56;101554.28;5007437;28;20112;-56
2023/04/03 13:29:33;;;;;;;4.22;1.45;;;;;;;12.60;50.41;101559.53;5005120;28;20085;-57